Bay City, Oregon
Current Conditions -  °F | °C
As of 5:55 PM on Friday 24 Oct 2014 (Local Time) from KTMK Reporting Station
Moderate Rain Moderate Rain  
Wind Chill: 54°   Ceiling: 5000
Heat Index: 54°   Visibility: 5mi
Dew Point: 50°   Wind: 9mph
Humidity: 88%   Direction: 70°ENE
Pressure: 29.77"   Gusts: NA
Location:  45.52°N, 123.89°W
Report Text: KTMK 250055Z AUTO 07008KT 5SM RA SCT042 BKN050 OVC060 12/10 A2977 RMK AO2 P0005
Loading
Personal Weather Stations






























Interactive Weather Map New forecast layout! Learn more

10-Day Weather Forecast

Advertisements
Track Severe Weather on mobile